sensor_id;sensor_type;location;lat;lon;timestamp;P1;durP1;ratioP1;P2;durP2;ratioP2
52248;SDS011;38541;48.130;8.378;2023-03-01T00:01:10;12.15;;;9.85;;
52248;SDS011;38541;48.130;8.378;2023-03-01T00:03:38;14.45;;;9.73;;
52248;SDS011;38541;48.130;8.378;2023-03-01T00:06:05;20.75;;;10.70;;
52248;SDS011;38541;48.130;8.378;2023-03-01T00:08:31;15.13;;;10.32;;
52248;SDS011;38541;48.130;8.378;2023-03-01T00:11:00;13.20;;;10.05;;
52248;SDS011;38541;48.130;8.378;2023-03-01T00:13:28;10.35;;;8.70;;
52248;SDS011;38541;48.130;8.378;2023-03-01T00:15:54;12.48;;;8.50;;
52248;SDS011;38541;48.130;8.378;2023-03-01T00:18:21;13.13;;;9.70;;
52248;SDS011;38541;48.130;8.378;2023-03-01T00:20:52;16.58;;;10.27;;
52248;SDS011;38541;48.130;8.378;2023-03-01T00:23:20;14.45;;;9.32;;
52248;SDS011;38541;48.130;8.378;2023-03-01T00:25:47;11.57;;;8.63;;
52248;SDS011;38541;48.130;8.378;2023-03-01T00:28:13;13.48;;;9.75;;
52248;SDS011;38541;48.130;8.378;2023-03-01T00:30:40;12.45;;;9.52;;
52248;SDS011;38541;48.130;8.378;2023-03-01T00:33:06;12.93;;;9.55;;
52248;SDS011;38541;48.130;8.378;2023-03-01T00:35:33;15.10;;;10.43;;
52248;SDS011;38541;48.130;8.378;2023-03-01T00:38:00;12.20;;;9.70;;
52248;SDS011;38541;48.130;8.378;2023-03-01T00:40:27;13.38;;;8.93;;
52248;SDS011;38541;48.130;8.378;2023-03-01T00:42:55;12.15;;;8.82;;
52248;SDS011;38541;48.130;8.378;2023-03-01T00:45:21;19.80;;;10.85;;
52248;SDS011;38541;48.130;8.378;2023-03-01T00:47:48;14.98;;;9.60;;
52248;SDS011;38541;48.130;8.378;2023-03-01T00:50:15;14.30;;;9.75;;
52248;SDS011;38541;48.130;8.378;2023-03-01T00:52:42;14.48;;;10.18;;
52248;SDS011;38541;48.130;8.378;2023-03-01T00:55:09;17.13;;;10.13;;
52248;SDS011;38541;48.130;8.378;2023-03-01T00:57:37;15.23;;;10.07;;
52248;SDS011;38541;48.130;8.378;2023-03-01T01:00:04;16.60;;;10.23;;
52248;SDS011;38541;48.130;8.378;2023-03-01T01:02:32;13.82;;;9.95;;
52248;SDS011;38541;48.130;8.378;2023-03-01T01:04:59;22.10;;;11.02;;
52248;SDS011;38541;48.130;8.378;2023-03-01T01:07:26;17.02;;;10.23;;
52248;SDS011;38541;48.130;8.378;2023-03-01T01:09:52;19.17;;;11.32;;
52248;SDS011;38541;48.130;8.378;2023-03-01T01:12:18;18.27;;;10.13;;
52248;SDS011;38541;48.130;8.378;2023-03-01T01:14:45;15.48;;;10.75;;
52248;SDS011;38541;48.130;8.378;2023-03-01T01:17:12;18.40;;;10.70;;
52248;SDS011;38541;48.130;8.378;2023-03-01T01:19:39;14.82;;;10.63;;
52248;SDS011;38541;48.130;8.378;2023-03-01T01:22:05;14.50;;;10.82;;
52248;SDS011;38541;48.130;8.378;2023-03-01T01:24:32;16.63;;;10.43;;
52248;SDS011;38541;48.130;8.378;2023-03-01T01:26:58;13.25;;;9.55;;
52248;SDS011;38541;48.130;8.378;2023-03-01T01:29:25;16.88;;;10.27;;
52248;SDS011;38541;48.130;8.378;2023-03-01T01:31:51;15.73;;;11.23;;
52248;SDS011;38541;48.130;8.378;2023-03-01T01:34:19;15.68;;;10.10;;
52248;SDS011;38541;48.130;8.378;2023-03-01T01:36:48;14.80;;;10.27;;
52248;SDS011;38541;48.130;8.378;2023-03-01T01:39:15;12.40;;;10.05;;
52248;SDS011;38541;48.130;8.378;2023-03-01T01:41:42;14.98;;;9.75;;
52248;SDS011;38541;48.130;8.378;2023-03-01T01:46:39;14.57;;;10.23;;
52248;SDS011;38541;48.130;8.378;2023-03-01T01:52:13;16.10;;;11.02;;
52248;SDS011;38541;48.130;8.378;2023-03-01T01:57:32;14.88;;;10.27;;
52248;SDS011;38541;48.130;8.378;2023-03-01T02:00:15;13.40;;;9.25;;
52248;SDS011;38541;48.130;8.378;2023-03-01T02:02:44;16.85;;;11.13;;
52248;SDS011;38541;48.130;8.378;2023-03-01T02:05:38;16.30;;;10.65;;
52248;SDS011;38541;48.130;8.378;2023-03-01T02:08:14;22.00;;;11.55;;
52248;SDS011;38541;48.130;8.378;2023-03-01T02:10:43;14.98;;;11.30;;
52248;SDS011;38541;48.130;8.378;2023-03-01T02:13:11;16.70;;;12.00;;
52248;SDS011;38541;48.130;8.378;2023-03-01T02:15:38;13.77;;;10.65;;
52248;SDS011;38541;48.130;8.378;2023-03-01T02:18:06;19.55;;;10.95;;
52248;SDS011;38541;48.130;8.378;2023-03-01T02:20:38;15.77;;;11.50;;
52248;SDS011;38541;48.130;8.378;2023-03-01T02:23:14;14.95;;;11.65;;
52248;SDS011;38541;48.130;8.378;2023-03-01T02:25:44;16.60;;;12.02;;
52248;SDS011;38541;48.130;8.378;2023-03-01T02:28:31;14.80;;;11.05;;
52248;SDS011;38541;48.130;8.378;2023-03-01T02:31:05;16.10;;;11.00;;
52248;SDS011;38541;48.130;8.378;2023-03-01T02:33:52;13.43;;;10.82;;
52248;SDS011;38541;48.130;8.378;2023-03-01T02:36:21;14.95;;;11.75;;
52248;SDS011;38541;48.130;8.378;2023-03-01T02:38:51;16.92;;;11.38;;
52248;SDS011;38541;48.130;8.378;2023-03-01T02:41:22;14.73;;;10.77;;
52248;SDS011;38541;48.130;8.378;2023-03-01T02:43:51;16.63;;;11.88;;
52248;SDS011;38541;48.130;8.378;2023-03-01T02:46:19;15.90;;;11.38;;
52248;SDS011;38541;48.130;8.378;2023-03-01T02:48:49;15.02;;;11.38;;
52248;SDS011;38541;48.130;8.378;2023-03-01T02:56:31;15.48;;;11.65;;
52248;SDS011;38541;48.130;8.378;2023-03-01T02:58:58;14.95;;;11.60;;
52248;SDS011;38541;48.130;8.378;2023-03-01T03:01:29;15.98;;;12.18;;
52248;SDS011;38541;48.130;8.378;2023-03-01T03:04:04;15.90;;;12.15;;
52248;SDS011;38541;48.130;8.378;2023-03-01T03:06:32;15.98;;;11.65;;
52248;SDS011;38541;48.130;8.378;2023-03-01T03:08:59;15.65;;;11.55;;
52248;SDS011;38541;48.130;8.378;2023-03-01T03:11:25;14.25;;;11.38;;
52248;SDS011;38541;48.130;8.378;2023-03-01T03:13:53;13.98;;;11.80;;
52248;SDS011;38541;48.130;8.378;2023-03-01T03:16:20;14.93;;;11.60;;
52248;SDS011;38541;48.130;8.378;2023-03-01T03:18:47;16.50;;;11.90;;
52248;SDS011;38541;48.130;8.378;2023-03-01T03:21:14;14.93;;;11.32;;
52248;SDS011;38541;48.130;8.378;2023-03-01T03:23:42;13.52;;;11.20;;
52248;SDS011;38541;48.130;8.378;2023-03-01T03:26:09;14.10;;;11.75;;
52248;SDS011;38541;48.130;8.378;2023-03-01T03:28:39;13.93;;;11.15;;
52248;SDS011;38541;48.130;8.378;2023-03-01T03:31:06;12.95;;;10.25;;
52248;SDS011;38541;48.130;8.378;2023-03-01T03:33:34;16.17;;;11.80;;
52248;SDS011;38541;48.130;8.378;2023-03-01T03:36:00;14.40;;;11.25;;
52248;SDS011;38541;48.130;8.378;2023-03-01T03:38:27;15.73;;;10.90;;
52248;SDS011;38541;48.130;8.378;2023-03-01T03:41:00;14.70;;;11.77;;
52248;SDS011;38541;48.130;8.378;2023-03-01T03:43:29;14.80;;;11.52;;
52248;SDS011;38541;48.130;8.378;2023-03-01T03:45:58;13.77;;;11.10;;
52248;SDS011;38541;48.130;8.378;2023-03-01T03:48:25;15.93;;;12.48;;
52248;SDS011;38541;48.130;8.378;2023-03-01T03:50:53;15.65;;;12.00;;
52248;SDS011;38541;48.130;8.378;2023-03-01T03:53:22;15.18;;;12.15;;
52248;SDS011;38541;48.130;8.378;2023-03-01T03:55:50;15.05;;;12.13;;
52248;SDS011;38541;48.130;8.378;2023-03-01T03:58:18;12.00;;;10.40;;
52248;SDS011;38541;48.130;8.378;2023-03-01T04:00:50;13.32;;;10.50;;
52248;SDS011;38541;48.130;8.378;2023-03-01T04:03:19;13.60;;;11.40;;
52248;SDS011;38541;48.130;8.378;2023-03-01T04:05:46;13.98;;;11.80;;
52248;SDS011;38541;48.130;8.378;2023-03-01T04:08:14;13.63;;;11.18;;
52248;SDS011;38541;48.130;8.378;2023-03-01T04:10:41;14.45;;;11.65;;
52248;SDS011;38541;48.130;8.378;2023-03-01T04:13:11;15.63;;;13.07;;
52248;SDS011;38541;48.130;8.378;2023-03-01T04:15:39;16.00;;;12.05;;
52248;SDS011;38541;48.130;8.378;2023-03-01T04:18:06;13.93;;;11.15;;
52248;SDS011;38541;48.130;8.378;2023-03-01T04:20:34;14.57;;;12.18;;
52248;SDS011;38541;48.130;8.378;2023-03-01T04:23:02;16.35;;;13.48;;
52248;SDS011;38541;48.130;8.378;2023-03-01T04:25:42;16.42;;;13.52;;
52248;SDS011;38541;48.130;8.378;2023-03-01T04:28:15;15.70;;;12.13;;
52248;SDS011;38541;48.130;8.378;2023-03-01T04:30:42;19.27;;;12.77;;
52248;SDS011;38541;48.130;8.378;2023-03-01T04:33:09;15.27;;;12.57;;
52248;SDS011;38541;48.130;8.378;2023-03-01T04:35:36;16.17;;;12.52;;
52248;SDS011;38541;48.130;8.378;2023-03-01T04:38:04;15.68;;;12.02;;
52248;SDS011;38541;48.130;8.378;2023-03-01T04:40:31;14.52;;;12.18;;
52248;SDS011;38541;48.130;8.378;2023-03-01T04:42:58;14.02;;;11.30;;
52248;SDS011;38541;48.130;8.378;2023-03-01T04:45:24;15.68;;;12.02;;
52248;SDS011;38541;48.130;8.378;2023-03-01T04:47:51;14.05;;;12.02;;
52248;SDS011;38541;48.130;8.378;2023-03-01T04:50:18;15.35;;;11.63;;
52248;SDS011;38541;48.130;8.378;2023-03-01T04:52:49;14.35;;;11.38;;
52248;SDS011;38541;48.130;8.378;2023-03-01T04:55:17;15.38;;;12.00;;
52248;SDS011;38541;48.130;8.378;2023-03-01T04:57:43;16.77;;;13.05;;
52248;SDS011;38541;48.130;8.378;2023-03-01T05:00:12;14.57;;;12.00;;
52248;SDS011;38541;48.130;8.378;2023-03-01T05:02:49;17.60;;;13.27;;
52248;SDS011;38541;48.130;8.378;2023-03-01T05:05:25;16.10;;;12.38;;
52248;SDS011;38541;48.130;8.378;2023-03-01T05:07:58;16.73;;;12.52;;
52248;SDS011;38541;48.130;8.378;2023-03-01T05:10:27;14.82;;;11.95;;
52248;SDS011;38541;48.130;8.378;2023-03-01T05:12:57;14.02;;;11.50;;
52248;SDS011;38541;48.130;8.378;2023-03-01T05:15:25;15.40;;;12.63;;
52248;SDS011;38541;48.130;8.378;2023-03-01T05:17:54;15.50;;;11.88;;
52248;SDS011;38541;48.130;8.378;2023-03-01T05:20:24;15.85;;;11.82;;
52248;SDS011;38541;48.130;8.378;2023-03-01T05:22:52;14.18;;;11.38;;
52248;SDS011;38541;48.130;8.378;2023-03-01T05:25:22;16.80;;;12.63;;
52248;SDS011;38541;48.130;8.378;2023-03-01T05:27:49;15.10;;;12.18;;
52248;SDS011;38541;48.130;8.378;2023-03-01T05:30:15;14.85;;;11.10;;
52248;SDS011;38541;48.130;8.378;2023-03-01T05:32:47;16.95;;;12.55;;
52248;SDS011;38541;48.130;8.378;2023-03-01T05:35:16;14.98;;;12.68;;
52248;SDS011;38541;48.130;8.378;2023-03-01T05:37:45;16.17;;;12.80;;
52248;SDS011;38541;48.130;8.378;2023-03-01T05:40:14;16.42;;;12.73;;
52248;SDS011;38541;48.130;8.378;2023-03-01T05:42:44;16.65;;;12.07;;
52248;SDS011;38541;48.130;8.378;2023-03-01T05:45:12;16.38;;;12.48;;
52248;SDS011;38541;48.130;8.378;2023-03-01T05:47:40;15.98;;;13.13;;
52248;SDS011;38541;48.130;8.378;2023-03-01T05:50:19;16.92;;;12.00;;
52248;SDS011;38541;48.130;8.378;2023-03-01T05:52:54;15.30;;;11.48;;
52248;SDS011;38541;48.130;8.378;2023-03-01T05:55:27;15.05;;;12.23;;
52248;SDS011;38541;48.130;8.378;2023-03-01T05:57:56;16.92;;;12.38;;
52248;SDS011;38541;48.130;8.378;2023-03-01T06:00:24;17.23;;;12.70;;
52248;SDS011;38541;48.130;8.378;2023-03-01T06:02:50;14.38;;;11.32;;
52248;SDS011;38541;48.130;8.378;2023-03-01T06:05:17;17.30;;;13.45;;
52248;SDS011;38541;48.130;8.378;2023-03-01T06:07:44;15.57;;;13.10;;
52248;SDS011;38541;48.130;8.378;2023-03-01T06:10:11;16.83;;;13.02;;
52248;SDS011;38541;48.130;8.378;2023-03-01T06:12:39;14.55;;;12.00;;
52248;SDS011;38541;48.130;8.378;2023-03-01T06:15:08;17.58;;;13.18;;
52248;SDS011;38541;48.130;8.378;2023-03-01T06:17:38;15.93;;;12.43;;
52248;SDS011;38541;48.130;8.378;2023-03-01T06:20:07;18.90;;;12.05;;
52248;SDS011;38541;48.130;8.378;2023-03-01T06:22:36;16.38;;;12.05;;
52248;SDS011;38541;48.130;8.378;2023-03-01T06:25:03;14.32;;;11.50;;
52248;SDS011;38541;48.130;8.378;2023-03-01T06:27:30;19.23;;;14.55;;
52248;SDS011;38541;48.130;8.378;2023-03-01T06:29:56;15.98;;;13.52;;
52248;SDS011;38541;48.130;8.378;2023-03-01T06:32:23;14.82;;;13.02;;
52248;SDS011;38541;48.130;8.378;2023-03-01T06:34:49;18.05;;;12.10;;
52248;SDS011;38541;48.130;8.378;2023-03-01T06:37:16;16.13;;;12.35;;
52248;SDS011;38541;48.130;8.378;2023-03-01T06:39:43;18.00;;;12.95;;
52248;SDS011;38541;48.130;8.378;2023-03-01T06:42:09;14.60;;;11.80;;
52248;SDS011;38541;48.130;8.378;2023-03-01T06:44:36;15.35;;;12.77;;
52248;SDS011;38541;48.130;8.378;2023-03-01T06:47:03;17.80;;;13.60;;
52248;SDS011;38541;48.130;8.378;2023-03-01T06:49:30;16.08;;;12.95;;
52248;SDS011;38541;48.130;8.378;2023-03-01T06:51:56;18.42;;;14.98;;
52248;SDS011;38541;48.130;8.378;2023-03-01T06:54:23;18.02;;;13.32;;
52248;SDS011;38541;48.130;8.378;2023-03-01T06:56:50;18.13;;;13.88;;
52248;SDS011;38541;48.130;8.378;2023-03-01T06:59:17;19.13;;;14.80;;
52248;SDS011;38541;48.130;8.378;2023-03-01T07:01:43;17.65;;;14.35;;
52248;SDS011;38541;48.130;8.378;2023-03-01T07:04:10;17.42;;;14.13;;
52248;SDS011;38541;48.130;8.378;2023-03-01T07:06:38;17.77;;;14.38;;
52248;SDS011;38541;48.130;8.378;2023-03-01T07:09:05;14.18;;;12.48;;
52248;SDS011;38541;48.130;8.378;2023-03-01T07:11:31;17.63;;;13.05;;
52248;SDS011;38541;48.130;8.378;2023-03-01T07:13:58;18.58;;;14.05;;
52248;SDS011;38541;48.130;8.378;2023-03-01T07:16:26;16.25;;;13.32;;
52248;SDS011;38541;48.130;8.378;2023-03-01T07:18:52;17.42;;;13.60;;
52248;SDS011;38541;48.130;8.378;2023-03-01T07:21:19;16.35;;;13.00;;
52248;SDS011;38541;48.130;8.378;2023-03-01T07:23:47;16.92;;;13.82;;
52248;SDS011;38541;48.130;8.378;2023-03-01T07:26:14;17.80;;;14.20;;
52248;SDS011;38541;48.130;8.378;2023-03-01T07:28:40;18.10;;;13.52;;
52248;SDS011;38541;48.130;8.378;2023-03-01T07:31:07;16.65;;;12.93;;
52248;SDS011;38541;48.130;8.378;2023-03-01T07:33:33;17.20;;;13.77;;
52248;SDS011;38541;48.130;8.378;2023-03-01T07:36:00;17.75;;;14.48;;
52248;SDS011;38541;48.130;8.378;2023-03-01T07:38:29;17.20;;;12.60;;
52248;SDS011;38541;48.130;8.378;2023-03-01T07:40:59;16.55;;;12.10;;
52248;SDS011;38541;48.130;8.378;2023-03-01T07:43:27;14.88;;;12.02;;
52248;SDS011;38541;48.130;8.378;2023-03-01T07:45:57;15.05;;;12.70;;
52248;SDS011;38541;48.130;8.378;2023-03-01T07:48:26;16.73;;;13.63;;
52248;SDS011;38541;48.130;8.378;2023-03-01T07:50:53;13.93;;;11.63;;
52248;SDS011;38541;48.130;8.378;2023-03-01T07:53:20;18.15;;;13.80;;
52248;SDS011;38541;48.130;8.378;2023-03-01T07:55:46;17.05;;;13.77;;
52248;SDS011;38541;48.130;8.378;2023-03-01T07:58:13;18.00;;;13.77;;
52248;SDS011;38541;48.130;8.378;2023-03-01T08:00:39;15.98;;;13.25;;
52248;SDS011;38541;48.130;8.378;2023-03-01T08:03:05;17.98;;;12.95;;
52248;SDS011;38541;48.130;8.378;2023-03-01T08:05:32;19.67;;;14.85;;
52248;SDS011;38541;48.130;8.378;2023-03-01T08:07:58;16.40;;;13.02;;
52248;SDS011;38541;48.130;8.378;2023-03-01T08:10:25;19.83;;;13.80;;
52248;SDS011;38541;48.130;8.378;2023-03-01T08:12:52;19.23;;;13.80;;
52248;SDS011;38541;48.130;8.378;2023-03-01T08:15:19;15.68;;;12.27;;
52248;SDS011;38541;48.130;8.378;2023-03-01T08:17:45;15.90;;;12.52;;
52248;SDS011;38541;48.130;8.378;2023-03-01T08:20:14;16.48;;;12.57;;
52248;SDS011;38541;48.130;8.378;2023-03-01T08:22:43;15.02;;;12.10;;
52248;SDS011;38541;48.130;8.378;2023-03-01T08:25:09;15.52;;;12.35;;
52248;SDS011;38541;48.130;8.378;2023-03-01T08:27:36;19.13;;;14.60;;
52248;SDS011;38541;48.130;8.378;2023-03-01T08:30:02;18.90;;;14.02;;
52248;SDS011;38541;48.130;8.378;2023-03-01T08:32:29;17.27;;;13.45;;
52248;SDS011;38541;48.130;8.378;2023-03-01T08:34:56;17.15;;;12.50;;
52248;SDS011;38541;48.130;8.378;2023-03-01T08:37:22;16.67;;;12.55;;
52248;SDS011;38541;48.130;8.378;2023-03-01T08:39:49;17.35;;;12.50;;
52248;SDS011;38541;48.130;8.378;2023-03-01T08:42:15;16.40;;;13.25;;
52248;SDS011;38541;48.130;8.378;2023-03-01T08:44:42;16.92;;;13.05;;
52248;SDS011;38541;48.130;8.378;2023-03-01T08:47:11;16.70;;;13.63;;
52248;SDS011;38541;48.130;8.378;2023-03-01T08:49:37;18.95;;;12.98;;
52248;SDS011;38541;48.130;8.378;2023-03-01T08:52:04;15.65;;;13.25;;
52248;SDS011;38541;48.130;8.378;2023-03-01T08:54:30;17.75;;;13.15;;
52248;SDS011;38541;48.130;8.378;2023-03-01T08:56:56;15.80;;;12.90;;
52248;SDS011;38541;48.130;8.378;2023-03-01T08:59:25;15.38;;;12.35;;
52248;SDS011;38541;48.130;8.378;2023-03-01T09:01:52;16.92;;;12.98;;
52248;SDS011;38541;48.130;8.378;2023-03-01T09:04:19;15.85;;;11.63;;
52248;SDS011;38541;48.130;8.378;2023-03-01T09:06:45;18.30;;;13.18;;
52248;SDS011;38541;48.130;8.378;2023-03-01T09:09:13;15.95;;;13.40;;
52248;SDS011;38541;48.130;8.378;2023-03-01T09:11:42;16.90;;;11.93;;
52248;SDS011;38541;48.130;8.378;2023-03-01T09:14:10;14.73;;;11.45;;
52248;SDS011;38541;48.130;8.378;2023-03-01T09:16:38;17.25;;;11.48;;
52248;SDS011;38541;48.130;8.378;2023-03-01T09:19:05;16.52;;;11.52;;
52248;SDS011;38541;48.130;8.378;2023-03-01T09:21:32;16.52;;;11.63;;
52248;SDS011;38541;48.130;8.378;2023-03-01T09:24:08;16.35;;;11.55;;
52248;SDS011;38541;48.130;8.378;2023-03-01T09:26:39;15.70;;;11.13;;
52248;SDS011;38541;48.130;8.378;2023-03-01T09:29:05;16.80;;;11.90;;
52248;SDS011;38541;48.130;8.378;2023-03-01T09:31:32;16.67;;;12.00;;
52248;SDS011;38541;48.130;8.378;2023-03-01T09:33:58;13.88;;;11.38;;
52248;SDS011;38541;48.130;8.378;2023-03-01T09:36:25;13.27;;;10.70;;
52248;SDS011;38541;48.130;8.378;2023-03-01T09:38:51;14.35;;;11.00;;
52248;SDS011;38541;48.130;8.378;2023-03-01T09:44:29;12.90;;;10.27;;
52248;SDS011;38541;48.130;8.378;2023-03-01T09:46:58;17.58;;;12.13;;
52248;SDS011;38541;48.130;8.378;2023-03-01T09:49:27;17.02;;;11.70;;
52248;SDS011;38541;48.130;8.378;2023-03-01T09:52:00;15.18;;;11.70;;
52248;SDS011;38541;48.130;8.378;2023-03-01T09:54:38;15.57;;;11.90;;
52248;SDS011;38541;48.130;8.378;2023-03-01T10:02:52;15.05;;;11.15;;
52248;SDS011;38541;48.130;8.378;2023-03-01T10:05:31;14.38;;;10.93;;
52248;SDS011;38541;48.130;8.378;2023-03-01T10:08:19;28.85;;;17.65;;
52248;SDS011;38541;48.130;8.378;2023-03-01T10:10:57;16.90;;;11.80;;
52248;SDS011;38541;48.130;8.378;2023-03-01T10:16:16;15.25;;;10.95;;
52248;SDS011;38541;48.130;8.378;2023-03-01T10:18:50;14.25;;;10.75;;
52248;SDS011;38541;48.130;8.378;2023-03-01T10:21:21;16.20;;;11.98;;
52248;SDS011;38541;48.130;8.378;2023-03-01T10:23:49;16.98;;;11.82;;
52248;SDS011;38541;48.130;8.378;2023-03-01T10:26:30;17.30;;;11.88;;
52248;SDS011;38541;48.130;8.378;2023-03-01T10:29:07;18.30;;;12.15;;
52248;SDS011;38541;48.130;8.378;2023-03-01T10:31:43;15.10;;;10.77;;
52248;SDS011;38541;48.130;8.378;2023-03-01T10:36:39;14.25;;;11.30;;
52248;SDS011;38541;48.130;8.378;2023-03-01T10:39:16;14.40;;;10.82;;
52248;SDS011;38541;48.130;8.378;2023-03-01T10:41:55;14.95;;;11.60;;
52248;SDS011;38541;48.130;8.378;2023-03-01T10:44:36;15.88;;;12.07;;
52248;SDS011;38541;48.130;8.378;2023-03-01T10:49:56;15.90;;;11.15;;
52248;SDS011;38541;48.130;8.378;2023-03-01T10:52:29;16.88;;;11.60;;
52248;SDS011;38541;48.130;8.378;2023-03-01T10:54:58;16.33;;;12.57;;
52248;SDS011;38541;48.130;8.378;2023-03-01T10:57:34;16.23;;;11.68;;
52248;SDS011;38541;48.130;8.378;2023-03-01T11:03:02;16.48;;;10.88;;
52248;SDS011;38541;48.130;8.378;2023-03-01T11:05:34;21.73;;;12.93;;
52248;SDS011;38541;48.130;8.378;2023-03-01T11:08:01;15.07;;;11.50;;
52248;SDS011;38541;48.130;8.378;2023-03-01T11:10:30;18.20;;;11.75;;
52248;SDS011;38541;48.130;8.378;2023-03-01T11:13:05;16.05;;;11.88;;
52248;SDS011;38541;48.130;8.378;2023-03-01T11:15:34;24.13;;;14.50;;
52248;SDS011;38541;48.130;8.378;2023-03-01T11:18:01;14.52;;;10.93;;
52248;SDS011;38541;48.130;8.378;2023-03-01T11:20:39;16.17;;;11.98;;
52248;SDS011;38541;48.130;8.378;2023-03-01T11:23:09;18.10;;;12.02;;
52248;SDS011;38541;48.130;8.378;2023-03-01T11:26:01;15.85;;;11.35;;
52248;SDS011;38541;48.130;8.378;2023-03-01T11:28:28;14.57;;;11.52;;
52248;SDS011;38541;48.130;8.378;2023-03-01T11:31:00;16.45;;;11.73;;
52248;SDS011;38541;48.130;8.378;2023-03-01T11:36:35;17.75;;;12.15;;
52248;SDS011;38541;48.130;8.378;2023-03-01T11:39:20;16.08;;;13.13;;
52248;SDS011;38541;48.130;8.378;2023-03-01T11:41:59;18.08;;;12.95;;
52248;SDS011;38541;48.130;8.378;2023-03-01T11:44:44;15.65;;;11.40;;
52248;SDS011;38541;48.130;8.378;2023-03-01T11:47:37;19.08;;;12.32;;
52248;SDS011;38541;48.130;8.378;2023-03-01T11:50:12;16.23;;;10.75;;
52248;SDS011;38541;48.130;8.378;2023-03-01T11:52:44;16.52;;;11.82;;
52248;SDS011;38541;48.130;8.378;2023-03-01T11:58:08;19.52;;;13.30;;
52248;SDS011;38541;48.130;8.378;2023-03-01T12:03:25;15.90;;;11.73;;
52248;SDS011;38541;48.130;8.378;2023-03-01T12:08:38;14.30;;;10.75;;
52248;SDS011;38541;48.130;8.378;2023-03-01T12:16:49;13.07;;;9.32;;
52248;SDS011;38541;48.130;8.378;2023-03-01T12:19:33;14.00;;;10.73;;
52248;SDS011;38541;48.130;8.378;2023-03-01T12:25:25;15.15;;;10.30;;
52248;SDS011;38541;48.130;8.378;2023-03-01T12:28:10;15.10;;;11.13;;
52248;SDS011;38541;48.130;8.378;2023-03-01T12:31:16;13.57;;;9.88;;
52248;SDS011;38541;48.130;8.378;2023-03-01T12:34:02;15.45;;;9.65;;
52248;SDS011;38541;48.130;8.378;2023-03-01T12:36:42;12.10;;;9.57;;
52248;SDS011;38541;48.130;8.378;2023-03-01T12:39:24;13.35;;;10.13;;
52248;SDS011;38541;48.130;8.378;2023-03-01T12:50:59;13.20;;;10.55;;
52248;SDS011;38541;48.130;8.378;2023-03-01T12:53:31;19.73;;;10.50;;
52248;SDS011;38541;48.130;8.378;2023-03-01T12:56:10;16.17;;;9.80;;
52248;SDS011;38541;48.130;8.378;2023-03-01T12:58:50;13.80;;;10.38;;
52248;SDS011;38541;48.130;8.378;2023-03-01T13:01:35;13.32;;;9.73;;
52248;SDS011;38541;48.130;8.378;2023-03-01T13:07:08;13.82;;;10.55;;
52248;SDS011;38541;48.130;8.378;2023-03-01T13:18:04;9.98;;;8.48;;
52248;SDS011;38541;48.130;8.378;2023-03-01T13:21:00;11.70;;;8.90;;
52248;SDS011;38541;48.130;8.378;2023-03-01T13:23:30;12.60;;;9.38;;
52248;SDS011;38541;48.130;8.378;2023-03-01T13:26:00;15.15;;;10.25;;
52248;SDS011;38541;48.130;8.378;2023-03-01T13:28:38;11.38;;;9.18;;
52248;SDS011;38541;48.130;8.378;2023-03-01T13:31:55;12.88;;;9.35;;
52248;SDS011;38541;48.130;8.378;2023-03-01T13:34:00;15.43;;;10.18;;
52248;SDS011;38541;48.130;8.378;2023-03-01T13:39:03;13.13;;;11.13;;
52248;SDS011;38541;48.130;8.378;2023-03-01T13:44:20;15.23;;;10.75;;
52248;SDS011;38541;48.130;8.378;2023-03-01T13:46:47;12.45;;;9.15;;
52248;SDS011;38541;48.130;8.378;2023-03-01T13:49:16;11.77;;;9.30;;
52248;SDS011;38541;48.130;8.378;2023-03-01T13:51:47;9.93;;;8.50;;
52248;SDS011;38541;48.130;8.378;2023-03-01T13:54:25;12.18;;;9.75;;
52248;SDS011;38541;48.130;8.378;2023-03-01T13:56:55;10.20;;;8.52;;
52248;SDS011;38541;48.130;8.378;2023-03-01T13:59:23;11.07;;;9.20;;
52248;SDS011;38541;48.130;8.378;2023-03-01T14:01:55;11.75;;;8.85;;
52248;SDS011;38541;48.130;8.378;2023-03-01T14:04:28;11.73;;;9.75;;
52248;SDS011;38541;48.130;8.378;2023-03-01T14:07:10;10.73;;;9.18;;
52248;SDS011;38541;48.130;8.378;2023-03-01T14:09:45;11.68;;;9.38;;
52248;SDS011;38541;48.130;8.378;2023-03-01T14:20:22;10.57;;;9.00;;
52248;SDS011;38541;48.130;8.378;2023-03-01T14:22:52;8.93;;;8.02;;
52248;SDS011;38541;48.130;8.378;2023-03-01T14:25:25;10.80;;;9.15;;
52248;SDS011;38541;48.130;8.378;2023-03-01T14:27:57;9.77;;;8.45;;
52248;SDS011;38541;48.130;8.378;2023-03-01T14:33:17;10.02;;;8.73;;
52248;SDS011;38541;48.130;8.378;2023-03-01T14:35:54;9.65;;;8.27;;
52248;SDS011;38541;48.130;8.378;2023-03-01T14:40:57;10.13;;;8.40;;
52248;SDS011;38541;48.130;8.378;2023-03-01T14:43:27;9.85;;;8.82;;
52248;SDS011;38541;48.130;8.378;2023-03-01T14:45:55;10.77;;;9.50;;
52248;SDS011;38541;48.130;8.378;2023-03-01T14:48:23;11.27;;;9.35;;
52248;SDS011;38541;48.130;8.378;2023-03-01T14:50:50;11.40;;;9.18;;
52248;SDS011;38541;48.130;8.378;2023-03-01T14:53:20;11.25;;;8.40;;
52248;SDS011;38541;48.130;8.378;2023-03-01T14:55:51;11.35;;;9.00;;
52248;SDS011;38541;48.130;8.378;2023-03-01T14:58:22;10.52;;;9.38;;
52248;SDS011;38541;48.130;8.378;2023-03-01T15:00:54;15.60;;;10.80;;
52248;SDS011;38541;48.130;8.378;2023-03-01T15:03:24;12.70;;;10.07;;
52248;SDS011;38541;48.130;8.378;2023-03-01T15:05:56;12.57;;;9.80;;
52248;SDS011;38541;48.130;8.378;2023-03-01T15:08:23;13.40;;;10.95;;
52248;SDS011;38541;48.130;8.378;2023-03-01T15:11:00;11.45;;;9.27;;
52248;SDS011;38541;48.130;8.378;2023-03-01T15:13:32;14.38;;;10.77;;
52248;SDS011;38541;48.130;8.378;2023-03-01T15:16:10;13.32;;;11.20;;
52248;SDS011;38541;48.130;8.378;2023-03-01T15:18:45;11.80;;;9.75;;
52248;SDS011;38541;48.130;8.378;2023-03-01T15:26:39;13.77;;;9.45;;
52248;SDS011;38541;48.130;8.378;2023-03-01T15:29:15;14.55;;;11.55;;
52248;SDS011;38541;48.130;8.378;2023-03-01T15:31:57;11.95;;;10.30;;
52248;SDS011;38541;48.130;8.378;2023-03-01T15:34:32;12.63;;;9.88;;
52248;SDS011;38541;48.130;8.378;2023-03-01T15:37:01;11.27;;;9.05;;
52248;SDS011;38541;48.130;8.378;2023-03-01T15:39:32;13.25;;;10.15;;
52248;SDS011;38541;48.130;8.378;2023-03-01T15:42:13;12.95;;;10.00;;
52248;SDS011;38541;48.130;8.378;2023-03-01T15:47:48;11.80;;;9.93;;
52248;SDS011;38541;48.130;8.378;2023-03-01T15:53:17;11.60;;;9.77;;
52248;SDS011;38541;48.130;8.378;2023-03-01T15:55:44;12.60;;;10.68;;
52248;SDS011;38541;48.130;8.378;2023-03-01T15:58:23;14.52;;;12.05;;
52248;SDS011;38541;48.130;8.378;2023-03-01T16:00:50;12.30;;;9.15;;
52248;SDS011;38541;48.130;8.378;2023-03-01T16:03:27;13.30;;;10.18;;
52248;SDS011;38541;48.130;8.378;2023-03-01T16:05:54;13.05;;;11.10;;
52248;SDS011;38541;48.130;8.378;2023-03-01T16:08:21;12.57;;;10.13;;
52248;SDS011;38541;48.130;8.378;2023-03-01T16:10:47;15.10;;;10.88;;
52248;SDS011;38541;48.130;8.378;2023-03-01T16:13:16;12.80;;;10.32;;
52248;SDS011;38541;48.130;8.378;2023-03-01T16:15:43;16.85;;;10.40;;
52248;SDS011;38541;48.130;8.378;2023-03-01T16:18:09;11.85;;;9.02;;
52248;SDS011;38541;48.130;8.378;2023-03-01T16:20:37;12.38;;;9.63;;
52248;SDS011;38541;48.130;8.378;2023-03-01T16:23:05;12.18;;;9.15;;
52248;SDS011;38541;48.130;8.378;2023-03-01T16:25:33;14.20;;;9.45;;